sensor_id;sensor_type;location;lat;lon;timestamp;P1;durP1;ratioP1;P2;durP2;ratioP2
4434;SDS011;46552;52.150;8.428;2023-07-31T00:01:33;7.87;;;3.87;;
4434;SDS011;46552;52.150;8.428;2023-07-31T00:04:00;5.53;;;3.50;;
4434;SDS011;46552;52.150;8.428;2023-07-31T00:06:27;6.30;;;3.70;;
4434;SDS011;46552;52.150;8.428;2023-07-31T00:08:55;10.40;;;3.60;;
4434;SDS011;46552;52.150;8.428;2023-07-31T00:11:23;5.93;;;3.80;;
4434;SDS011;46552;52.150;8.428;2023-07-31T00:13:50;8.50;;;5.03;;
4434;SDS011;46552;52.150;8.428;2023-07-31T00:16:20;9.13;;;4.37;;
4434;SDS011;46552;52.150;8.428;2023-07-31T00:18:47;8.77;;;4.13;;
4434;SDS011;46552;52.150;8.428;2023-07-31T00:21:14;8.13;;;4.27;;
4434;SDS011;46552;52.150;8.428;2023-07-31T00:23:42;7.40;;;4.80;;
4434;SDS011;46552;52.150;8.428;2023-07-31T00:26:11;9.63;;;5.40;;
4434;SDS011;46552;52.150;8.428;2023-07-31T00:28:38;8.47;;;5.23;;
4434;SDS011;46552;52.150;8.428;2023-07-31T00:31:05;7.93;;;4.67;;
4434;SDS011;46552;52.150;8.428;2023-07-31T00:33:34;7.80;;;5.27;;
4434;SDS011;46552;52.150;8.428;2023-07-31T00:36:02;7.87;;;5.17;;
4434;SDS011;46552;52.150;8.428;2023-07-31T00:38:29;8.87;;;5.40;;
4434;SDS011;46552;52.150;8.428;2023-07-31T00:40:56;7.40;;;5.07;;
4434;SDS011;46552;52.150;8.428;2023-07-31T00:43:25;7.90;;;5.07;;
4434;SDS011;46552;52.150;8.428;2023-07-31T00:45:52;8.47;;;5.90;;
4434;SDS011;46552;52.150;8.428;2023-07-31T00:48:20;7.80;;;5.00;;
4434;SDS011;46552;52.150;8.428;2023-07-31T00:50:47;10.90;;;5.70;;
4434;SDS011;46552;52.150;8.428;2023-07-31T00:53:15;8.00;;;5.93;;
4434;SDS011;46552;52.150;8.428;2023-07-31T00:55:42;18.10;;;5.73;;
4434;SDS011;46552;52.150;8.428;2023-07-31T00:58:09;11.10;;;5.70;;
4434;SDS011;46552;52.150;8.428;2023-07-31T01:00:38;9.10;;;6.10;;
4434;SDS011;46552;52.150;8.428;2023-07-31T01:03:05;7.37;;;5.50;;
4434;SDS011;46552;52.150;8.428;2023-07-31T01:05:33;10.17;;;6.57;;
4434;SDS011;46552;52.150;8.428;2023-07-31T01:08:15;8.17;;;6.53;;
4434;SDS011;46552;52.150;8.428;2023-07-31T01:10:49;7.47;;;5.30;;
4434;SDS011;46552;52.150;8.428;2023-07-31T01:13:21;7.73;;;4.97;;
4434;SDS011;46552;52.150;8.428;2023-07-31T01:15:50;9.10;;;5.70;;
4434;SDS011;46552;52.150;8.428;2023-07-31T01:18:17;8.10;;;5.10;;
4434;SDS011;46552;52.150;8.428;2023-07-31T01:20:44;6.40;;;4.50;;
4434;SDS011;46552;52.150;8.428;2023-07-31T01:23:27;5.40;;;4.30;;
4434;SDS011;46552;52.150;8.428;2023-07-31T01:26:15;7.33;;;3.70;;
4434;SDS011;46552;52.150;8.428;2023-07-31T01:28:50;6.93;;;3.70;;
4434;SDS011;46552;52.150;8.428;2023-07-31T01:31:22;8.40;;;4.77;;
4434;SDS011;46552;52.150;8.428;2023-07-31T01:33:52;6.43;;;3.53;;
4434;SDS011;46552;52.150;8.428;2023-07-31T01:36:20;4.97;;;3.17;;
4434;SDS011;46552;52.150;8.428;2023-07-31T01:38:48;6.47;;;3.37;;
4434;SDS011;46552;52.150;8.428;2023-07-31T01:41:17;5.27;;;3.47;;
4434;SDS011;46552;52.150;8.428;2023-07-31T01:43:45;8.20;;;3.90;;
4434;SDS011;46552;52.150;8.428;2023-07-31T01:46:12;5.00;;;3.67;;
4434;SDS011;46552;52.150;8.428;2023-07-31T01:48:39;4.40;;;2.80;;
4434;SDS011;46552;52.150;8.428;2023-07-31T01:51:07;5.87;;;3.10;;
4434;SDS011;46552;52.150;8.428;2023-07-31T01:53:34;15.50;;;4.33;;
4434;SDS011;46552;52.150;8.428;2023-07-31T01:56:01;5.03;;;3.70;;
4434;SDS011;46552;52.150;8.428;2023-07-31T01:58:30;5.60;;;3.00;;
4434;SDS011;46552;52.150;8.428;2023-07-31T02:00:57;8.83;;;3.70;;
4434;SDS011;46552;52.150;8.428;2023-07-31T02:03:24;5.57;;;2.87;;
4434;SDS011;46552;52.150;8.428;2023-07-31T02:05:51;6.40;;;2.50;;
4434;SDS011;46552;52.150;8.428;2023-07-31T02:08:18;5.57;;;2.43;;
4434;SDS011;46552;52.150;8.428;2023-07-31T02:10:46;3.27;;;1.60;;
4434;SDS011;46552;52.150;8.428;2023-07-31T02:13:13;6.50;;;3.20;;
4434;SDS011;46552;52.150;8.428;2023-07-31T02:15:41;4.20;;;1.90;;
4434;SDS011;46552;52.150;8.428;2023-07-31T02:18:08;7.30;;;2.70;;
4434;SDS011;46552;52.150;8.428;2023-07-31T02:20:36;4.47;;;1.93;;
4434;SDS011;46552;52.150;8.428;2023-07-31T02:23:03;5.53;;;2.37;;
4434;SDS011;46552;52.150;8.428;2023-07-31T02:25:30;4.10;;;1.80;;
4434;SDS011;46552;52.150;8.428;2023-07-31T02:27:57;5.17;;;1.70;;
4434;SDS011;46552;52.150;8.428;2023-07-31T02:30:25;4.17;;;1.93;;
4434;SDS011;46552;52.150;8.428;2023-07-31T02:32:53;5.20;;;2.20;;
4434;SDS011;46552;52.150;8.428;2023-07-31T02:35:20;4.10;;;1.73;;
4434;SDS011;46552;52.150;8.428;2023-07-31T02:37:47;3.83;;;1.83;;
4434;SDS011;46552;52.150;8.428;2023-07-31T02:40:15;5.60;;;1.90;;
4434;SDS011;46552;52.150;8.428;2023-07-31T02:42:42;4.10;;;1.67;;
4434;SDS011;46552;52.150;8.428;2023-07-31T02:45:09;4.17;;;1.40;;
4434;SDS011;46552;52.150;8.428;2023-07-31T02:47:37;3.77;;;1.50;;
4434;SDS011;46552;52.150;8.428;2023-07-31T02:50:06;4.13;;;1.63;;
4434;SDS011;46552;52.150;8.428;2023-07-31T02:52:33;2.63;;;1.40;;
4434;SDS011;46552;52.150;8.428;2023-07-31T02:55:00;3.30;;;1.40;;
4434;SDS011;46552;52.150;8.428;2023-07-31T02:57:28;2.93;;;0.80;;
4434;SDS011;46552;52.150;8.428;2023-07-31T02:59:55;3.63;;;1.10;;
4434;SDS011;46552;52.150;8.428;2023-07-31T03:02:22;2.90;;;1.20;;
4434;SDS011;46552;52.150;8.428;2023-07-31T03:04:50;3.70;;;0.80;;
4434;SDS011;46552;52.150;8.428;2023-07-31T03:07:18;5.57;;;1.30;;
4434;SDS011;46552;52.150;8.428;2023-07-31T03:09:45;4.20;;;0.90;;
4434;SDS011;46552;52.150;8.428;2023-07-31T03:12:13;4.70;;;1.93;;
4434;SDS011;46552;52.150;8.428;2023-07-31T03:14:40;2.60;;;1.20;;
4434;SDS011;46552;52.150;8.428;2023-07-31T03:17:07;2.97;;;0.90;;
4434;SDS011;46552;52.150;8.428;2023-07-31T03:19:35;2.40;;;1.00;;
4434;SDS011;46552;52.150;8.428;2023-07-31T03:22:02;2.00;;;0.73;;
4434;SDS011;46552;52.150;8.428;2023-07-31T03:24:31;5.30;;;1.30;;
4434;SDS011;46552;52.150;8.428;2023-07-31T03:26:58;2.70;;;1.03;;
4434;SDS011;46552;52.150;8.428;2023-07-31T03:29:25;3.00;;;1.60;;
4434;SDS011;46552;52.150;8.428;2023-07-31T03:31:52;5.13;;;2.57;;
4434;SDS011;46552;52.150;8.428;2023-07-31T03:34:19;4.27;;;2.53;;
4434;SDS011;46552;52.150;8.428;2023-07-31T03:36:47;6.60;;;4.00;;
4434;SDS011;46552;52.150;8.428;2023-07-31T03:39:14;6.73;;;4.00;;
4434;SDS011;46552;52.150;8.428;2023-07-31T03:41:43;7.77;;;4.50;;
4434;SDS011;46552;52.150;8.428;2023-07-31T03:44:10;9.90;;;4.93;;
4434;SDS011;46552;52.150;8.428;2023-07-31T03:46:37;14.70;;;6.00;;
4434;SDS011;46552;52.150;8.428;2023-07-31T03:49:04;17.90;;;7.30;;
4434;SDS011;46552;52.150;8.428;2023-07-31T03:51:31;22.63;;;7.70;;
4434;SDS011;46552;52.150;8.428;2023-07-31T03:53:59;22.63;;;7.77;;
4434;SDS011;46552;52.150;8.428;2023-07-31T03:56:26;14.37;;;6.57;;
4434;SDS011;46552;52.150;8.428;2023-07-31T03:58:55;19.70;;;8.60;;
4434;SDS011;46552;52.150;8.428;2023-07-31T04:01:22;15.87;;;8.57;;
4434;SDS011;46552;52.150;8.428;2023-07-31T04:03:50;22.60;;;9.47;;
4434;SDS011;46552;52.150;8.428;2023-07-31T04:06:17;23.07;;;9.87;;
4434;SDS011;46552;52.150;8.428;2023-07-31T04:08:45;23.60;;;10.17;;
4434;SDS011;46552;52.150;8.428;2023-07-31T04:11:13;29.30;;;10.87;;
4434;SDS011;46552;52.150;8.428;2023-07-31T04:13:40;26.73;;;10.37;;
4434;SDS011;46552;52.150;8.428;2023-07-31T04:16:09;23.40;;;10.50;;
4434;SDS011;46552;52.150;8.428;2023-07-31T04:18:37;24.70;;;9.47;;
4434;SDS011;46552;52.150;8.428;2023-07-31T04:21:05;17.80;;;9.33;;
4434;SDS011;46552;52.150;8.428;2023-07-31T04:23:32;21.77;;;9.17;;
4434;SDS011;46552;52.150;8.428;2023-07-31T04:25:59;23.27;;;10.63;;
4434;SDS011;46552;52.150;8.428;2023-07-31T04:28:26;22.70;;;10.53;;
4434;SDS011;46552;52.150;8.428;2023-07-31T04:30:56;30.40;;;10.07;;
4434;SDS011;46552;52.150;8.428;2023-07-31T04:33:25;24.83;;;12.57;;
4434;SDS011;46552;52.150;8.428;2023-07-31T04:35:52;21.30;;;11.00;;
4434;SDS011;46552;52.150;8.428;2023-07-31T04:38:20;24.93;;;12.07;;
4434;SDS011;46552;52.150;8.428;2023-07-31T04:40:48;29.00;;;11.97;;
4434;SDS011;46552;52.150;8.428;2023-07-31T04:43:15;20.13;;;11.77;;
4434;SDS011;46552;52.150;8.428;2023-07-31T04:45:44;29.43;;;12.30;;
4434;SDS011;46552;52.150;8.428;2023-07-31T04:48:13;28.37;;;12.57;;
4434;SDS011;46552;52.150;8.428;2023-07-31T04:50:41;28.13;;;13.07;;
4434;SDS011;46552;52.150;8.428;2023-07-31T04:53:09;21.17;;;13.07;;
4434;SDS011;46552;52.150;8.428;2023-07-31T04:55:36;27.87;;;12.37;;
4434;SDS011;46552;52.150;8.428;2023-07-31T04:58:04;26.67;;;12.43;;
4434;SDS011;46552;52.150;8.428;2023-07-31T05:00:32;29.37;;;11.27;;
4434;SDS011;46552;52.150;8.428;2023-07-31T05:03:00;23.50;;;12.03;;
4434;SDS011;46552;52.150;8.428;2023-07-31T05:05:27;31.13;;;13.50;;
4434;SDS011;46552;52.150;8.428;2023-07-31T05:07:56;29.17;;;12.43;;
4434;SDS011;46552;52.150;8.428;2023-07-31T05:10:23;32.27;;;11.93;;
4434;SDS011;46552;52.150;8.428;2023-07-31T05:12:50;32.03;;;11.90;;
4434;SDS011;46552;52.150;8.428;2023-07-31T05:15:26;21.57;;;12.10;;
4434;SDS011;46552;52.150;8.428;2023-07-31T05:17:54;35.90;;;12.10;;
4434;SDS011;46552;52.150;8.428;2023-07-31T05:20:21;36.40;;;13.23;;
4434;SDS011;46552;52.150;8.428;2023-07-31T05:22:48;30.63;;;10.83;;
4434;SDS011;46552;52.150;8.428;2023-07-31T05:25:19;33.37;;;11.53;;
4434;SDS011;46552;52.150;8.428;2023-07-31T05:27:47;33.30;;;11.17;;
4434;SDS011;46552;52.150;8.428;2023-07-31T05:30:15;31.17;;;10.07;;
4434;SDS011;46552;52.150;8.428;2023-07-31T05:32:43;19.80;;;9.20;;
4434;SDS011;46552;52.150;8.428;2023-07-31T05:35:10;19.00;;;8.77;;
4434;SDS011;46552;52.150;8.428;2023-07-31T05:37:37;22.57;;;8.70;;
4434;SDS011;46552;52.150;8.428;2023-07-31T05:40:05;37.43;;;9.90;;
4434;SDS011;46552;52.150;8.428;2023-07-31T05:42:35;31.07;;;8.77;;
4434;SDS011;46552;52.150;8.428;2023-07-31T05:45:04;22.77;;;8.40;;
4434;SDS011;46552;52.150;8.428;2023-07-31T05:47:32;14.77;;;7.43;;
4434;SDS011;46552;52.150;8.428;2023-07-31T05:49:59;25.20;;;9.17;;
4434;SDS011;46552;52.150;8.428;2023-07-31T05:52:26;23.20;;;8.60;;
4434;SDS011;46552;52.150;8.428;2023-07-31T05:54:54;27.80;;;9.73;;
4434;SDS011;46552;52.150;8.428;2023-07-31T05:57:21;28.07;;;9.10;;
4434;SDS011;46552;52.150;8.428;2023-07-31T05:59:50;20.73;;;7.57;;
4434;SDS011;46552;52.150;8.428;2023-07-31T06:02:18;17.87;;;6.80;;
4434;SDS011;46552;52.150;8.428;2023-07-31T06:04:45;19.63;;;7.17;;
4434;SDS011;46552;52.150;8.428;2023-07-31T06:07:12;20.17;;;7.10;;
4434;SDS011;46552;52.150;8.428;2023-07-31T06:09:40;22.17;;;7.50;;
4434;SDS011;46552;52.150;8.428;2023-07-31T06:12:07;26.60;;;7.90;;
4434;SDS011;46552;52.150;8.428;2023-07-31T06:14:34;19.53;;;7.83;;
4434;SDS011;46552;52.150;8.428;2023-07-31T06:17:04;20.83;;;7.27;;
4434;SDS011;46552;52.150;8.428;2023-07-31T06:19:32;17.80;;;7.30;;
4434;SDS011;46552;52.150;8.428;2023-07-31T06:21:59;20.53;;;8.13;;
4434;SDS011;46552;52.150;8.428;2023-07-31T06:24:27;22.57;;;6.73;;
4434;SDS011;46552;52.150;8.428;2023-07-31T06:26:54;24.23;;;7.23;;
4434;SDS011;46552;52.150;8.428;2023-07-31T06:29:22;27.83;;;7.97;;
4434;SDS011;46552;52.150;8.428;2023-07-31T06:31:49;18.00;;;8.27;;
4434;SDS011;46552;52.150;8.428;2023-07-31T06:34:18;24.50;;;6.00;;
4434;SDS011;46552;52.150;8.428;2023-07-31T06:36:45;20.47;;;8.77;;
4434;SDS011;46552;52.150;8.428;2023-07-31T06:39:13;26.53;;;8.23;;
4434;SDS011;46552;52.150;8.428;2023-07-31T06:41:40;28.33;;;10.03;;
4434;SDS011;46552;52.150;8.428;2023-07-31T06:44:08;20.53;;;8.30;;
4434;SDS011;46552;52.150;8.428;2023-07-31T06:46:36;17.33;;;7.03;;
4434;SDS011;46552;52.150;8.428;2023-07-31T06:49:04;26.40;;;7.40;;
4434;SDS011;46552;52.150;8.428;2023-07-31T06:51:32;37.00;;;8.17;;
4434;SDS011;46552;52.150;8.428;2023-07-31T06:54:01;22.90;;;8.33;;
4434;SDS011;46552;52.150;8.428;2023-07-31T06:56:28;22.40;;;8.07;;
4434;SDS011;46552;52.150;8.428;2023-07-31T06:58:55;19.40;;;7.20;;
4434;SDS011;46552;52.150;8.428;2023-07-31T07:01:22;26.60;;;8.53;;
4434;SDS011;46552;52.150;8.428;2023-07-31T07:03:50;24.47;;;8.30;;
4434;SDS011;46552;52.150;8.428;2023-07-31T07:06:17;23.60;;;8.10;;
4434;SDS011;46552;52.150;8.428;2023-07-31T07:08:45;22.43;;;8.87;;
4434;SDS011;46552;52.150;8.428;2023-07-31T07:11:12;14.10;;;6.73;;
4434;SDS011;46552;52.150;8.428;2023-07-31T07:13:40;16.90;;;7.20;;
4434;SDS011;46552;52.150;8.428;2023-07-31T07:16:08;18.77;;;7.87;;
4434;SDS011;46552;52.150;8.428;2023-07-31T07:18:36;22.83;;;7.63;;
4434;SDS011;46552;52.150;8.428;2023-07-31T07:21:03;17.10;;;6.93;;
4434;SDS011;46552;52.150;8.428;2023-07-31T07:23:30;22.90;;;7.60;;
4434;SDS011;46552;52.150;8.428;2023-07-31T07:25:59;21.23;;;7.40;;
4434;SDS011;46552;52.150;8.428;2023-07-31T07:28:27;21.40;;;8.20;;
4434;SDS011;46552;52.150;8.428;2023-07-31T07:30:54;18.67;;;7.97;;
4434;SDS011;46552;52.150;8.428;2023-07-31T07:33:22;14.40;;;6.90;;
4434;SDS011;46552;52.150;8.428;2023-07-31T07:35:49;16.30;;;7.03;;
4434;SDS011;46552;52.150;8.428;2023-07-31T07:38:16;15.27;;;5.90;;
4434;SDS011;46552;52.150;8.428;2023-07-31T07:40:44;15.63;;;7.27;;
4434;SDS011;46552;52.150;8.428;2023-07-31T07:43:13;16.07;;;8.17;;
4434;SDS011;46552;52.150;8.428;2023-07-31T07:45:41;20.57;;;8.30;;
4434;SDS011;46552;52.150;8.428;2023-07-31T07:48:08;19.43;;;8.63;;
4434;SDS011;46552;52.150;8.428;2023-07-31T07:50:37;15.47;;;7.40;;
4434;SDS011;46552;52.150;8.428;2023-07-31T07:53:05;13.13;;;6.63;;
4434;SDS011;46552;52.150;8.428;2023-07-31T07:55:33;15.20;;;7.30;;
4434;SDS011;46552;52.150;8.428;2023-07-31T07:58:00;23.80;;;8.67;;
4434;SDS011;46552;52.150;8.428;2023-07-31T08:00:29;17.83;;;8.33;;
4434;SDS011;46552;52.150;8.428;2023-07-31T08:02:57;23.70;;;9.10;;
4434;SDS011;46552;52.150;8.428;2023-07-31T08:05:25;18.87;;;8.40;;
4434;SDS011;46552;52.150;8.428;2023-07-31T08:07:52;18.50;;;7.80;;
4434;SDS011;46552;52.150;8.428;2023-07-31T08:10:19;18.63;;;8.10;;
4434;SDS011;46552;52.150;8.428;2023-07-31T08:12:46;17.90;;;8.40;;
4434;SDS011;46552;52.150;8.428;2023-07-31T08:15:14;18.47;;;7.30;;
4434;SDS011;46552;52.150;8.428;2023-07-31T08:17:44;18.23;;;6.57;;
4434;SDS011;46552;52.150;8.428;2023-07-31T08:20:11;13.40;;;5.90;;
4434;SDS011;46552;52.150;8.428;2023-07-31T08:22:39;12.00;;;6.37;;
4434;SDS011;46552;52.150;8.428;2023-07-31T08:25:07;11.40;;;6.50;;
4434;SDS011;46552;52.150;8.428;2023-07-31T08:27:35;16.57;;;6.37;;
4434;SDS011;46552;52.150;8.428;2023-07-31T08:30:03;13.00;;;6.10;;
4434;SDS011;46552;52.150;8.428;2023-07-31T08:32:31;14.83;;;7.00;;
4434;SDS011;46552;52.150;8.428;2023-07-31T08:35:01;11.07;;;5.67;;
4434;SDS011;46552;52.150;8.428;2023-07-31T08:37:28;9.20;;;5.60;;
4434;SDS011;46552;52.150;8.428;2023-07-31T08:39:55;9.43;;;5.00;;
4434;SDS011;46552;52.150;8.428;2023-07-31T08:42:23;10.70;;;4.90;;
4434;SDS011;46552;52.150;8.428;2023-07-31T08:44:54;9.00;;;5.30;;
4434;SDS011;46552;52.150;8.428;2023-07-31T08:47:22;7.17;;;5.17;;
4434;SDS011;46552;52.150;8.428;2023-07-31T08:49:52;6.97;;;4.70;;
4434;SDS011;46552;52.150;8.428;2023-07-31T08:52:23;11.60;;;6.10;;
4434;SDS011;46552;52.150;8.428;2023-07-31T08:54:51;11.10;;;6.60;;
4434;SDS011;46552;52.150;8.428;2023-07-31T08:57:18;11.33;;;7.17;;
4434;SDS011;46552;52.150;8.428;2023-07-31T08:59:46;10.33;;;6.87;;
4434;SDS011;46552;52.150;8.428;2023-07-31T09:02:13;8.87;;;6.33;;
4434;SDS011;46552;52.150;8.428;2023-07-31T09:04:42;21.33;;;7.23;;
4434;SDS011;46552;52.150;8.428;2023-07-31T09:07:11;8.80;;;6.50;;
4434;SDS011;46552;52.150;8.428;2023-07-31T09:09:42;8.67;;;6.00;;
4434;SDS011;46552;52.150;8.428;2023-07-31T09:12:10;8.33;;;5.10;;
4434;SDS011;46552;52.150;8.428;2023-07-31T09:14:38;8.43;;;4.87;;
4434;SDS011;46552;52.150;8.428;2023-07-31T09:17:06;6.50;;;4.27;;
4434;SDS011;46552;52.150;8.428;2023-07-31T09:19:34;9.20;;;5.50;;
4434;SDS011;46552;52.150;8.428;2023-07-31T09:22:03;10.60;;;5.57;;
4434;SDS011;46552;52.150;8.428;2023-07-31T09:24:32;7.53;;;3.97;;
4434;SDS011;46552;52.150;8.428;2023-07-31T09:27:02;7.70;;;4.87;;
4434;SDS011;46552;52.150;8.428;2023-07-31T09:29:29;9.07;;;4.70;;
4434;SDS011;46552;52.150;8.428;2023-07-31T09:31:57;8.17;;;4.10;;
4434;SDS011;46552;52.150;8.428;2023-07-31T09:34:28;10.40;;;4.93;;
4434;SDS011;46552;52.150;8.428;2023-07-31T09:36:57;6.50;;;4.80;;
4434;SDS011;46552;52.150;8.428;2023-07-31T09:39:27;7.20;;;4.97;;
4434;SDS011;46552;52.150;8.428;2023-07-31T09:41:56;6.50;;;3.87;;
4434;SDS011;46552;52.150;8.428;2023-07-31T09:44:38;8.10;;;4.93;;
4434;SDS011;46552;52.150;8.428;2023-07-31T09:47:06;6.30;;;4.40;;
4434;SDS011;46552;52.150;8.428;2023-07-31T09:49:46;6.87;;;4.53;;
4434;SDS011;46552;52.150;8.428;2023-07-31T09:52:14;7.10;;;4.80;;
4434;SDS011;46552;52.150;8.428;2023-07-31T09:54:41;6.90;;;5.13;;
4434;SDS011;46552;52.150;8.428;2023-07-31T09:57:08;7.40;;;4.37;;
4434;SDS011;46552;52.150;8.428;2023-07-31T09:59:38;6.73;;;4.20;;
4434;SDS011;46552;52.150;8.428;2023-07-31T10:02:05;10.70;;;4.73;;
4434;SDS011;46552;52.150;8.428;2023-07-31T10:04:41;6.60;;;4.20;;
4434;SDS011;46552;52.150;8.428;2023-07-31T10:07:10;5.43;;;3.60;;
4434;SDS011;46552;52.150;8.428;2023-07-31T10:09:38;6.50;;;3.53;;
4434;SDS011;46552;52.150;8.428;2023-07-31T10:12:05;6.13;;;3.70;;
4434;SDS011;46552;52.150;8.428;2023-07-31T10:14:38;4.87;;;3.50;;
4434;SDS011;46552;52.150;8.428;2023-07-31T10:17:07;5.70;;;3.60;;
4434;SDS011;46552;52.150;8.428;2023-07-31T10:19:35;6.07;;;3.87;;
4434;SDS011;46552;52.150;8.428;2023-07-31T10:22:02;7.53;;;3.23;;
4434;SDS011;46552;52.150;8.428;2023-07-31T10:24:31;6.00;;;3.30;;
4434;SDS011;46552;52.150;8.428;2023-07-31T10:26:59;5.57;;;2.97;;
4434;SDS011;46552;52.150;8.428;2023-07-31T10:29:28;4.33;;;2.60;;
4434;SDS011;46552;52.150;8.428;2023-07-31T10:31:57;8.13;;;3.60;;
4434;SDS011;46552;52.150;8.428;2023-07-31T10:34:26;7.83;;;3.53;;
4434;SDS011;46552;52.150;8.428;2023-07-31T10:39:55;5.90;;;2.97;;
4434;SDS011;46552;52.150;8.428;2023-07-31T10:42:29;11.60;;;4.23;;
4434;SDS011;46552;52.150;8.428;2023-07-31T10:44:59;4.70;;;2.40;;
4434;SDS011;46552;52.150;8.428;2023-07-31T10:47:30;5.10;;;2.80;;
4434;SDS011;46552;52.150;8.428;2023-07-31T10:50:18;5.47;;;2.67;;
4434;SDS011;46552;52.150;8.428;2023-07-31T10:52:47;5.53;;;3.10;;
4434;SDS011;46552;52.150;8.428;2023-07-31T10:55:16;5.97;;;3.13;;
4434;SDS011;46552;52.150;8.428;2023-07-31T10:57:51;6.97;;;2.40;;
4434;SDS011;46552;52.150;8.428;2023-07-31T11:00:19;5.13;;;2.63;;
4434;SDS011;46552;52.150;8.428;2023-07-31T11:03:05;8.70;;;2.30;;
4434;SDS011;46552;52.150;8.428;2023-07-31T11:05:47;4.73;;;2.73;;
4434;SDS011;46552;52.150;8.428;2023-07-31T11:08:19;5.47;;;2.30;;
4434;SDS011;46552;52.150;8.428;2023-07-31T11:10:49;3.70;;;2.17;;
4434;SDS011;46552;52.150;8.428;2023-07-31T11:13:17;4.80;;;2.20;;
4434;SDS011;46552;52.150;8.428;2023-07-31T11:15:44;4.77;;;2.87;;
4434;SDS011;46552;52.150;8.428;2023-07-31T11:18:13;5.90;;;2.50;;
4434;SDS011;46552;52.150;8.428;2023-07-31T11:20:42;3.67;;;2.40;;
4434;SDS011;46552;52.150;8.428;2023-07-31T11:23:09;3.47;;;2.23;;
4434;SDS011;46552;52.150;8.428;2023-07-31T11:25:37;6.13;;;2.90;;
4434;SDS011;46552;52.150;8.428;2023-07-31T11:28:08;7.60;;;3.30;;
4434;SDS011;46552;52.150;8.428;2023-07-31T11:30:37;4.40;;;2.90;;
4434;SDS011;46552;52.150;8.428;2023-07-31T11:33:05;7.50;;;3.00;;
4434;SDS011;46552;52.150;8.428;2023-07-31T11:35:35;4.63;;;2.97;;
4434;SDS011;46552;52.150;8.428;2023-07-31T11:38:07;4.90;;;2.83;;
4434;SDS011;46552;52.150;8.428;2023-07-31T11:40:40;4.50;;;2.90;;
4434;SDS011;46552;52.150;8.428;2023-07-31T11:43:09;5.00;;;3.47;;
4434;SDS011;46552;52.150;8.428;2023-07-31T11:45:42;5.40;;;3.07;;
4434;SDS011;46552;52.150;8.428;2023-07-31T11:48:18;6.70;;;3.73;;
4434;SDS011;46552;52.150;8.428;2023-07-31T11:50:48;6.20;;;2.77;;
4434;SDS011;46552;52.150;8.428;2023-07-31T11:53:17;6.77;;;2.47;;
4434;SDS011;46552;52.150;8.428;2023-07-31T11:55:48;6.33;;;2.70;;
4434;SDS011;46552;52.150;8.428;2023-07-31T11:58:16;7.10;;;2.20;;
4434;SDS011;46552;52.150;8.428;2023-07-31T12:00:46;2.93;;;1.70;;
4434;SDS011;46552;52.150;8.428;2023-07-31T12:03:13;4.00;;;2.30;;
4434;SDS011;46552;52.150;8.428;2023-07-31T12:05:41;3.60;;;2.27;;
4434;SDS011;46552;52.150;8.428;2023-07-31T12:08:13;4.27;;;2.10;;
4434;SDS011;46552;52.150;8.428;2023-07-31T12:10:41;3.27;;;2.30;;
4434;SDS011;46552;52.150;8.428;2023-07-31T12:13:10;3.37;;;1.70;;
4434;SDS011;46552;52.150;8.428;2023-07-31T12:15:39;4.60;;;2.50;;
4434;SDS011;46552;52.150;8.428;2023-07-31T12:18:08;3.47;;;1.97;;
4434;SDS011;46552;52.150;8.428;2023-07-31T12:20:40;3.53;;;2.10;;
4434;SDS011;46552;52.150;8.428;2023-07-31T12:23:17;3.43;;;2.00;;
4434;SDS011;46552;52.150;8.428;2023-07-31T12:25:59;2.73;;;1.53;;
4434;SDS011;46552;52.150;8.428;2023-07-31T12:28:27;7.17;;;2.63;;
4434;SDS011;46552;52.150;8.428;2023-07-31T12:30:56;4.57;;;1.77;;
4434;SDS011;46552;52.150;8.428;2023-07-31T12:33:29;4.17;;;2.67;;
4434;SDS011;46552;52.150;8.428;2023-07-31T12:35:58;3.13;;;2.10;;
4434;SDS011;46552;52.150;8.428;2023-07-31T12:38:29;2.97;;;1.87;;
4434;SDS011;46552;52.150;8.428;2023-07-31T12:40:56;2.97;;;1.47;;
4434;SDS011;46552;52.150;8.428;2023-07-31T12:43:23;4.60;;;2.03;;
4434;SDS011;46552;52.150;8.428;2023-07-31T12:45:51;3.63;;;2.40;;
4434;SDS011;46552;52.150;8.428;2023-07-31T12:48:18;3.10;;;2.00;;
4434;SDS011;46552;52.150;8.428;2023-07-31T12:50:45;5.07;;;2.73;;
4434;SDS011;46552;52.150;8.428;2023-07-31T12:53:13;6.27;;;3.90;;
4434;SDS011;46552;52.150;8.428;2023-07-31T12:55:42;7.00;;;4.57;;
4434;SDS011;46552;52.150;8.428;2023-07-31T12:58:10;6.97;;;4.93;;
4434;SDS011;46552;52.150;8.428;2023-07-31T13:00:37;11.57;;;6.93;;
4434;SDS011;46552;52.150;8.428;2023-07-31T13:03:05;11.53;;;7.00;;
4434;SDS011;46552;52.150;8.428;2023-07-31T13:05:32;11.23;;;7.40;;
4434;SDS011;46552;52.150;8.428;2023-07-31T13:07:59;10.70;;;6.57;;
4434;SDS011;46552;52.150;8.428;2023-07-31T13:10:27;12.40;;;8.20;;
4434;SDS011;46552;52.150;8.428;2023-07-31T13:12:56;13.07;;;9.50;;
4434;SDS011;46552;52.150;8.428;2023-07-31T13:15:23;14.20;;;9.37;;
4434;SDS011;46552;52.150;8.428;2023-07-31T13:17:51;14.37;;;10.70;;
4434;SDS011;46552;52.150;8.428;2023-07-31T13:20:18;17.87;;;12.07;;
4434;SDS011;46552;52.150;8.428;2023-07-31T13:22:45;16.20;;;9.33;;
4434;SDS011;46552;52.150;8.428;2023-07-31T13:25:13;17.80;;;10.33;;
4434;SDS011;46552;52.150;8.428;2023-07-31T13:27:40;13.40;;;9.77;;
4434;SDS011;46552;52.150;8.428;2023-07-31T13:30:09;14.40;;;9.47;;
4434;SDS011;46552;52.150;8.428;2023-07-31T13:32:36;15.00;;;10.27;;
4434;SDS011;46552;52.150;8.428;2023-07-31T13:35:04;15.27;;;10.30;;
4434;SDS011;46552;52.150;8.428;2023-07-31T13:37:32;15.97;;;10.17;;
4434;SDS011;46552;52.150;8.428;2023-07-31T13:39:59;16.30;;;10.57;;
4434;SDS011;46552;52.150;8.428;2023-07-31T13:42:27;17.40;;;11.73;;
4434;SDS011;46552;52.150;8.428;2023-07-31T13:44:54;12.60;;;9.27;;
4434;SDS011;46552;52.150;8.428;2023-07-31T13:47:24;15.07;;;10.57;;
4434;SDS011;46552;52.150;8.428;2023-07-31T13:49:51;16.37;;;10.07;;
4434;SDS011;46552;52.150;8.428;2023-07-31T13:52:19;13.40;;;8.90;;
4434;SDS011;46552;52.150;8.428;2023-07-31T13:54:46;12.83;;;9.40;;
4434;SDS011;46552;52.150;8.428;2023-07-31T13:57:13;15.90;;;9.27;;
4434;SDS011;46552;52.150;8.428;2023-07-31T13:59:41;14.97;;;9.80;;
4434;SDS011;46552;52.150;8.428;2023-07-31T14:02:08;11.30;;;7.63;;
4434;SDS011;46552;52.150;8.428;2023-07-31T14:04:38;18.00;;;8.13;;
4434;SDS011;46552;52.150;8.428;2023-07-31T14:07:05;9.13;;;7.33;;
4434;SDS011;46552;52.150;8.428;2023-07-31T14:09:32;12.97;;;8.87;;
4434;SDS011;46552;52.150;8.428;2023-07-31T14:11:59;12.27;;;8.63;;
4434;SDS011;46552;52.150;8.428;2023-07-31T14:14:27;16.37;;;8.13;;
4434;SDS011;46552;52.150;8.428;2023-07-31T14:16:55;14.90;;;7.07;;
4434;SDS011;46552;52.150;8.428;2023-07-31T14:19:22;18.50;;;9.30;;
4434;SDS011;46552;52.150;8.428;2023-07-31T14:21:51;11.70;;;7.80;;
4434;SDS011;46552;52.150;8.428;2023-07-31T14:24:19;12.50;;;6.57;;
4434;SDS011;46552;52.150;8.428;2023-07-31T14:26:48;22.23;;;7.97;;
4434;SDS011;46552;52.150;8.428;2023-07-31T14:29:16;10.67;;;7.57;;
4434;SDS011;46552;52.150;8.428;2023-07-31T14:31:43;12.63;;;6.80;;
4434;SDS011;46552;52.150;8.428;2023-07-31T14:34:10;12.40;;;7.07;;
4434;SDS011;46552;52.150;8.428;2023-07-31T14:36:37;13.70;;;7.70;;
4434;SDS011;46552;52.150;8.428;2023-07-31T14:39:08;11.10;;;7.73;;
4434;SDS011;46552;52.150;8.428;2023-07-31T14:41:35;12.43;;;7.53;;
4434;SDS011;46552;52.150;8.428;2023-07-31T14:44:03;12.10;;;7.10;;
4434;SDS011;46552;52.150;8.428;2023-07-31T14:46:30;10.10;;;7.53;;
4434;SDS011;46552;52.150;8.428;2023-07-31T14:48:57;11.40;;;7.33;;
4434;SDS011;46552;52.150;8.428;2023-07-31T14:51:24;11.00;;;6.60;;
4434;SDS011;46552;52.150;8.428;2023-07-31T14:53:52;10.73;;;7.73;;
4434;SDS011;46552;52.150;8.428;2023-07-31T14:56:20;12.27;;;7.80;;
4434;SDS011;46552;52.150;8.428;2023-07-31T14:58:48;12.10;;;7.40;;
4434;SDS011;46552;52.150;8.428;2023-07-31T15:01:15;14.80;;;8.90;;
4434;SDS011;46552;52.150;8.428;2023-07-31T15:03:42;15.30;;;7.73;;